Latest Weather Observations for Maningrida Airport

IDD60801

Issued at 5:05 am CST Saturday 1 November 2014 (issued every 30 minutes, with the page automatically refreshed every 10 minutes)

About weather observations | Map of weather stations | Latest weather observations for NT | Other Formats
Station Details ID: 014405 Name: MANINGRIDA AIRPORT Lat: -12.06 Lon: 134.23 Height: 28.1 m
Data from the previous 72 hours. | See also: Recent months at Maningrida Airport
Date/Time
CST
Temp
°C
App
Temp
°C
Dew
Point
Rel
Hum
%
Delta-T
°C
Wind Press
QNH
hPa
Press
MSL
hPa
Rain
since 9 am
mm
Dir
 
Spd
km/h
Gust
km/h
Spd
kts
Gust
kts
01/05:00am 21.1 23.6 21.1 100 0.0 SSE 9 11 5 6 1009.9 1009.8 0.0
01/04:30am 21.1 23.6 21.1 100 0.0 SSE 9 11 5 6 1009.5 1009.4 0.0
01/04:00am 20.7 23.5 20.5 99 0.1 SSW 6 9 3 5 1009.1 1008.9 0.0
01/03:30am 20.8 23.6 20.5 98 0.2 SSW 6 7 3 4 1008.9 1008.7 0.0
01/03:00am 21.3 24.2 21.0 98 0.2 SSW 7 9 4 5 1008.7 1008.5 0.0
01/02:30am 21.3 24.3 20.8 97 0.3 SSW 6 7 3 4 1008.7 1008.5 0.0
01/02:00am 21.4 24.2 20.4 94 0.6 SSW 6 9 3 5 1009.0 1008.8 0.0
01/01:30am 21.5 24.1 20.5 94 0.6 NW 7 7 4 4 1009.1 1008.9 0.0
01/01:00am 23.1 26.2 21.0 88 1.4 N 6 7 3 4 1009.1 1008.9 0.0
01/12:30am 23.0 25.9 20.7 87 1.5 N 6 7 3 4 1009.4 1009.3 0.0
01/12:00am 23.1 26.1 20.8 87 1.5 N 6 7 3 4 1009.6 1009.5 0.0
 
Date/Time
CST
Temp
°C
App
Temp
°C
Dew
Point
Rel
Hum
%
Delta-T
°C
Wind Press
QNH
hPa
Press
MSL
hPa
Rain
since 9 am
mm
Dir
 
Spd
km/h
Gust
km/h
Spd
kts
Gust
kts
31/11:30pm 23.0 25.7 20.3 85 1.8 N 6 7 3 4 1009.8 1009.7 0.0
31/11:00pm 23.1 25.8 20.2 84 1.9 N 6 7 3 4 1009.9 1009.8 0.0
31/10:30pm 23.3 25.9 20.1 82 2.1 N 6 7 3 4 1010.0 1009.9 0.0
31/10:00pm 24.0 26.6 20.1 79 2.5 N 6 6 3 3 1009.8 1009.7 0.0
31/09:45pm 24.2 26.7 19.9 77 2.8 N 6 7 3 4 1009.7 1009.6 0.0
31/09:30pm 24.8 27.4 20.1 75 3.1 N 6 7 3 4 1009.7 1009.6 0.0
31/09:28pm 25.0 27.7 20.3 75 3.1 N 6 7 3 4 1009.7 1009.6 0.0
31/09:00pm 26.5 28.3 20.3 68 4.1 N 11 15 6 8 1009.3 1009.2 0.0
31/08:30pm 26.7 28.4 21.0 71 3.8 N 13 19 7 10 1009.0 1008.8 0.0
31/08:00pm 26.5 28.4 20.6 70 3.9 N 11 17 6 9 1008.8 1008.6 0.0
31/07:30pm 26.7 28.7 20.8 70 3.9 N 11 15 6 8 1008.6 1008.4 0.0
31/07:00pm 27.0 28.0 20.3 66 4.4 N 15 22 8 12 1008.5 1008.3 0.0
31/06:30pm 27.1 28.5 20.4 66 4.4 N 13 17 7 9 1008.2 1008.0 0.0
31/06:00pm 27.6 28.4 19.9 63 5.0 N 15 20 8 11 1008.2 1008.0 0.0
31/05:30pm 28.3 29.5 20.6 63 5.1 N 15 20 8 11 1008.0 1007.8 0.0
31/05:00pm 28.7 29.2 19.3 56 6.1 N 15 20 8 11 1008.0 1007.8 0.0
31/04:30pm 29.1 29.3 19.4 55 6.3 N 17 20 9 11 1008.1 1007.9 0.0
31/04:00pm 29.5 30.4 20.1 57 6.2 N 15 22 8 12 1008.2 1008.0 0.0
31/03:30pm 30.1 30.3 20.1 55 6.6 N 19 26 10 14 1008.4 1008.2 0.0
31/03:00pm 29.4 30.1 20.5 58 5.9 N 17 24 9 13 1008.4 1008.2 0.0
31/02:30pm 29.3 29.9 21.0 61 5.5 N 19 26 10 14 1008.7 1008.5 0.0
31/02:00pm 30.4 30.9 20.9 57 6.3 N 19 24 10 13 1008.9 1008.7 0.0
31/01:30pm 29.5 29.7 20.6 58 5.9 N 20 28 11 15 1009.3 1009.2 0.0
31/01:00pm 29.9 30.2 20.7 57 6.1 N 20 28 11 15 1009.7 1009.6 0.0
31/12:30pm 29.8 29.6 20.6 57 6.1 N 22 28 12 15 1010.0 1009.9 0.0
31/12:00pm 29.7 30.4 20.5 57 6.1 N 17 24 9 13 1010.2 1010.1 0.0
31/11:30am 29.0 29.4 19.9 58 6.0 N 17 22 9 12 1010.7 1010.6 0.0
31/11:00am 29.0 29.6 20.2 59 5.8 N 17 30 9 16 1011.3 1011.1 0.0
31/10:30am 29.4 30.1 20.5 58 5.9 N 17 22 9 12 1011.5 1011.3 0.0
31/10:00am 29.4 30.3 20.8 60 5.7 N 17 26 9 14 1011.7 1011.5 0.0
31/09:30am 28.7 29.4 20.4 60 5.5 N 17 22 9 12 1012.0 1011.8 0.0
31/09:00am 28.1 28.8 19.6 60 5.5 N 15 20 8 11 1012.0 1011.8 0.0
31/08:30am 28.0 28.6 20.3 63 5.1 NNE 17 20 9 11 1011.8 1011.6 0.0
31/08:00am 27.3 28.7 20.4 66 4.5 NE 13 17 7 9 1011.4 1011.2 0.0
31/07:30am 26.3 29.4 21.1 73 3.4 ENE 6 7 3 4 1011.1 1011.0 0.0
31/07:00am 23.4 28.0 21.7 90 1.1 CALM 0 0 0 0 1010.7 1010.6 0.0
31/06:30am 21.4 24.7 21.4 100 0.0 S 6 9 3 5 1010.2 1010.1 0.0
31/06:00am 20.8 24.8 20.6 99 0.1 SW 0 0 0 0 1009.8 1009.7 0.0
31/05:30am 21.0 25.1 20.8 99 0.1 CALM 0 0 0 0 1009.5 1009.4 0.0
31/05:00am 21.0 23.9 20.7 98 0.2 SW 6 7 3 4 1009.4 1009.3 0.0
31/04:30am 20.9 24.7 20.2 96 0.5 CALM 0 4 0 2 1009.2 1009.0 0.0
31/04:00am 21.6 24.5 20.6 94 0.6 SE 6 7 3 4 1008.8 1008.6 0.0
31/03:30am 21.9 24.6 20.7 93 0.8 SE 7 9 4 5 1008.7 1008.5 0.0
31/03:00am 22.0 24.7 20.6 92 0.9 SE 7 7 4 4 1008.6 1008.4 0.0
31/02:30am 22.1 24.8 20.6 91 1.0 SE 7 7 4 4 1008.8 1008.6 0.0
31/02:20am 22.1 24.7 20.4 90 1.1 SE 7 7 4 4 1008.8 1008.6 0.0
31/02:04am 22.5 25.4 20.6 89 1.2 SE 6 7 3 4 1008.9 1008.7 0.0
31/02:00am 22.6 25.4 20.5 88 1.4 SE 6 6 3 3 1009.0 1008.8 0.0
31/01:45am 22.8 25.6 20.5 87 1.5 SE 6 6 3 3 1009.0 1008.8 0.0
31/01:35am 22.9 25.7 20.4 86 1.6 SE 6 7 3 4 1009.1 1008.9 0.0
31/01:30am 23.0 25.8 20.5 86 1.6 SE 6 7 3 4 1009.1 1008.9 0.0
31/01:00am 23.1 25.7 20.4 85 1.8 SE 7 7 4 4 1009.2 1009.0 0.0
31/12:30am 23.5 26.1 20.4 83 2.0 ESE 7 7 4 4 1009.3 1009.2 0.0
31/12:00am 23.9 27.8 20.4 81 2.3 CALM 0 0 0 0 1009.5 1009.4 0.0
 
Date/Time
CST
Temp
°C
App
Temp
°C
Dew
Point
Rel
Hum
%
Delta-T
°C
Wind Press
QNH
hPa
Press
MSL
hPa
Rain
since 9 am
mm
Dir
 
Spd
km/h
Gust
km/h
Spd
kts
Gust
kts
30/11:30pm 24.1 27.8 20.0 78 2.7 CALM 0 4 0 2 1009.7 1009.6 0.0
30/11:00pm 25.4 28.3 20.6 75 3.1 NE 6 7 3 4 1009.8 1009.7 0.0
30/10:30pm 25.5 28.4 20.7 75 3.2 NE 6 9 3 5 1009.9 1009.8 0.0
30/10:00pm 25.6 28.3 20.6 74 3.3 NE 7 9 4 5 1009.8 1009.7 0.0
30/09:30pm 26.0 29.6 20.6 72 3.5 NNE 2 6 1 3 1009.5 1009.4 0.0
30/09:00pm 26.5 29.4 21.0 72 3.6 NNE 7 11 4 6 1009.1 1008.9 0.0
30/08:30pm 26.7 29.1 20.8 70 3.9 N 9 13 5 7 1008.9 1008.7 0.0
30/08:00pm 26.6 29.1 21.1 72 3.6 N 9 13 5 7 1008.7 1008.5 0.0
30/07:30pm 27.0 29.5 21.1 70 3.9 N 9 13 5 7 1008.6 1008.4 0.0
30/07:00pm 27.2 29.6 20.8 68 4.2 N 9 13 5 7 1008.5 1008.3 0.0
30/06:30pm 27.5 29.5 20.8 67 4.4 N 11 15 6 8 1008.4 1008.2 0.0
30/06:00pm 27.9 29.1 20.7 65 4.8 N 15 20 8 11 1008.3 1008.1 0.0
30/05:30pm 28.8 29.8 21.0 62 5.2 N 17 22 9 12 1008.2 1008.0 0.0
30/05:00pm 29.1 29.6 21.1 62 5.3 N 20 26 11 14 1008.0 1007.8 0.0
30/04:30pm 29.0 29.3 20.7 61 5.5 N 20 26 11 14 1008.1 1007.9 0.0
30/04:00pm 29.9 30.3 21.0 59 5.9 N 20 26 11 14 1008.1 1007.9 0.0
30/03:30pm 29.4 29.9 21.1 61 5.5 N 20 28 11 15 1008.4 1008.2 0.0
30/03:00pm 29.6 29.6 20.2 57 6.2 N 20 28 11 15 1008.6 1008.4 0.0
30/02:30pm 29.9 30.1 20.2 56 6.4 N 19 26 10 14 1008.8 1008.6 0.0
30/02:00pm 30.5 30.8 20.4 54 6.7 N 19 26 10 14 1009.0 1008.8 0.0
30/01:30pm 30.3 30.6 20.8 56 6.3 N 20 26 11 14 1009.4 1009.3 0.0
30/01:00pm 29.3 29.6 20.7 59 5.7 N 20 30 11 16 1009.9 1009.8 0.0
30/12:30pm 29.7 30.3 21.4 61 5.6 N 20 26 11 14 1010.3 1010.2 0.0
30/12:00pm 29.0 29.3 20.4 59 5.7 N 19 28 10 15 1010.7 1010.6 0.0
30/11:30am 29.0 29.6 21.0 62 5.3 N 19 26 10 14 1011.0 1010.9 0.0
30/11:00am 29.4 30.2 21.4 62 5.4 N 19 24 10 13 1011.4 1011.2 0.0
30/10:30am 28.7 29.3 21.0 63 5.1 N 19 26 10 14 1011.7 1011.5 0.0
30/10:00am 28.7 30.3 22.2 68 4.4 NNW 17 24 9 13 1011.9 1011.7 0.0
30/09:30am 27.9 29.3 21.9 70 4.0 NNW 17 22 9 12 1012.0 1011.8 0.0
30/09:00am 27.9 29.6 21.7 69 4.2 NW 15 20 8 11 1012.1 1011.9 0.0
30/08:30am 28.2 31.1 21.7 68 4.4 NNW 9 19 5 10 1012.0 1011.8 0.0
30/08:00am 26.5 29.9 21.0 72 3.6 NW 4 7 2 4 1011.7 1011.5 0.0
30/07:30am 25.1 28.3 20.6 76 2.9 SSW 4 6 2 3 1011.4 1011.2 0.0
30/07:00am 23.2 27.3 20.7 86 1.6 CALM 0 2 0 1 1011.1 1011.0 0.0
30/06:30am 20.8 23.5 20.3 97 0.3 S 6 9 3 5 1010.7 1010.6 0.0
30/06:00am 20.3 22.7 20.1 99 0.1 SSW 7 9 4 5 1010.2 1010.1 0.0
30/05:30am 20.3 22.9 20.0 98 0.2 S 6 7 3 4 1010.1 1010.0 0.0
30/05:00am 20.5 23.1 20.0 97 0.3 S 6 7 3 4 1009.9 1009.8 0.0
30/04:30am 20.8 23.5 20.6 99 0.1 SSW 7 9 4 5 1009.8 1009.7 0.0
30/04:00am 21.0 23.9 20.7 98 0.2 S 6 9 3 5 1009.8 1009.7 0.0
30/03:30am 21.2 23.9 20.7 97 0.3 S 7 9 4 5 1009.8 1009.7 0.0
30/03:00am 21.2 24.6 20.9 98 0.2 SSE 4 9 2 5 1009.9 1009.8 0.0
30/02:51am 21.0 25.0 20.5 97 0.3 CALM 0 0 0 0 1009.9 1009.8 0.0
30/02:34am 20.9 24.3 20.2 96 0.4 SSE 2 6 1 3 1009.9 1009.8 0.0
30/02:30am 20.9 24.3 20.2 96 0.5 SSE 2 6 1 3 1009.9 1009.8 0.0
30/02:00am 21.7 24.2 20.2 91 1.0 SSE 7 9 4 5 1010.2 1010.1 0.0
30/01:30am 22.3 25.1 20.4 89 1.2 SE 6 7 3 4 1010.5 1010.4 0.0
30/01:00am 22.5 25.5 20.0 86 1.6 SE 4 7 2 4 1010.5 1010.4 0.0
30/12:30am 23.0 25.6 20.1 84 1.9 SE 6 7 3 4 1010.8 1010.7 0.0
30/12:00am 23.6 26.2 20.1 81 2.3 ENE 6 6 3 3 1011.0 1010.9 0.0
 
Date/Time
CST
Temp
°C
App
Temp
°C
Dew
Point
Rel
Hum
%
Delta-T
°C
Wind Press
QNH
hPa
Press
MSL
hPa
Rain
since 9 am
mm
Dir
 
Spd
km/h
Gust
km/h
Spd
kts
Gust
kts
29/11:30pm 24.3 27.3 20.8 81 2.3 ENE 6 9 3 5 1011.4 1011.2 0.0
29/11:00pm 23.8 26.3 19.9 79 2.5 ESE 6 7 3 4 1011.7 1011.5 0.0
29/10:30pm 24.1 26.7 20.0 78 2.7 SE 6 7 3 4 1011.8 1011.6 0.0
29/10:00pm 24.5 28.1 19.8 75 3.0 CALM 0 0 0 0 1011.6 1011.4 0.0
29/09:48pm 24.7 28.4 20.0 75 3.0 CALM 0 0 0 0 1011.5 1011.3 0.0
29/09:32pm 24.7 28.2 19.5 73 3.3 CALM 0 0 0 0 1011.4 1011.2 0.0
29/09:30pm 24.7 28.2 19.5 73 3.3 CALM 0 0 0 0 1011.3 1011.1 0.0
29/09:00pm 26.1 29.3 20.4 71 3.7 NE 4 7 2 4 1011.0 1010.9 0.0
29/08:30pm 26.2 28.6 20.1 69 4.0 NNE 7 9 4 5 1010.8 1010.7 0.0
29/08:00pm 26.5 28.8 19.9 67 4.3 NNE 7 11 4 6 1010.6 1010.5 0.0
29/07:30pm 26.8 28.8 19.9 66 4.5 NNE 9 13 5 7 1010.2 1010.1 0.0
29/07:00pm 27.2 28.7 19.8 64 4.8 NNE 11 15 6 8 1010.0 1009.9 0.0
29/06:30pm 27.5 28.3 19.8 63 5.0 N 15 20 8 11 1009.7 1009.6 0.0
29/06:00pm 28.1 28.3 19.3 58 5.7 N 17 20 9 11 1009.5 1009.4 0.0
29/05:30pm 28.4 28.1 19.1 57 6.0 N 19 24 10 13 1009.3 1009.2 0.0
29/05:00pm 29.2 28.9 19.5 56 6.3 N 20 26 11 14 1009.2 1009.0 0.0
29/04:30pm 29.1 28.6 19.1 54 6.5 N 20 26 11 14 1009.1 1008.9 0.0
29/04:00pm 29.4 29.2 19.7 56 6.3 N 20 28 11 15 1009.2 1009.0 0.0
29/03:30pm 30.1 29.5 18.8 50 7.3 N 20 26 11 14 1009.3 1009.2 0.0
29/03:00pm 30.3 29.8 19.9 53 6.9 N 22 33 12 18 1009.4 1009.3 0.0
29/02:30pm 30.0 29.4 19.7 54 6.8 N 22 30 12 16 1009.7 1009.6 0.0
29/02:00pm 29.8 28.7 19.5 54 6.7 N 24 33 13 18 1009.8 1009.7 0.0
29/01:30pm 30.9 30.7 20.5 54 6.9 N 22 30 12 16 1010.0 1009.9 0.0
29/01:00pm 30.6 29.5 20.2 53 6.9 N 26 32 14 17 1010.4 1010.3 0.0
29/12:30pm 29.7 28.7 19.7 55 6.6 N 24 30 13 16 1010.9 1010.8 0.0
29/12:00pm 29.9 29.5 20.2 56 6.4 N 22 30 12 16 1011.5 1011.3 0.0
29/11:30am 30.2 31.1 19.2 51 7.2 NE 13 22 7 12 1012.0 1011.8 0.0
29/11:00am 30.2 30.9 19.6 53 6.9 ENE 15 24 8 13 1012.4 1012.2 0.0
29/10:30am 29.9 31.5 20.7 57 6.1 ENE 13 24 7 13 1012.6 1012.4 0.0
29/10:00am 28.7 29.9 19.9 59 5.8 NNE 13 24 7 13 1012.9 1012.7 0.0
29/09:30am 28.4 28.9 20.1 60 5.4 NE 17 24 9 13 1012.9 1012.7 0.0
29/09:00am 29.1 30.9 21.1 62 5.3 NE 13 19 7 10 1012.7 1012.5 0.0
29/08:30am 27.5 29.9 21.5 70 4.0 ENE 11 19 6 10 1012.6 1012.4 0.0
29/08:00am 26.6 29.4 21.6 74 3.3 E 9 15 5 8 1012.4 1012.2 0.0
29/07:30am 25.1 27.5 21.6 81 2.3 SE 11 13 6 7 1012.3 1012.1 0.0
29/07:00am 23.1 26.3 21.7 92 0.9 S 7 9 4 5 1012.0 1011.8 0.0
29/06:30am 21.3 24.3 21.3 100 0.0 S 7 9 4 5 1011.8 1011.6 0.0
29/06:00am 20.7 23.4 20.7 100 0.0 SSE 7 9 4 5 1011.5 1011.3 0.0
29/05:30am 21.2 24.2 21.2 100 0.0 SSE 7 9 4 5 1011.1 1011.0 0.0

Other Formats:

Comma delimited format used in spreadsheet applications
http://www.bom.gov.au/fwo/IDD60801/IDD60801.95142.axf

JavaScript Object Notation format (JSON) in row-major order
http://www.bom.gov.au/fwo/IDD60801/IDD60801.95142.json